Time;durP1;ratioP1;P1;durP2;ratioP2;P2;SDS_P1;SDS_P2;PMS_P1;PMS_P2;Temp;Humidity;BMP_temperature;BMP_pressure;BME280_temperature;BME280_humidity;BME280_pressure;Samples;Min_cycle;Max_cycle;Signal;HPM_P1;HPM_P2
2021/01/14 00:01:33;;;;;;;9.70;6.50;;;5.10;99.90;;;;;;5015943;28;20240;-86
2021/01/14 00:04:13;;;;;;;8.23;5.83;;;5.10;99.90;;;;;;4997400;28;20219;-86
2021/01/14 00:06:47;;;;;;;10.30;5.80;;;5.30;99.90;;;;;;4997588;28;20204;-86
2021/01/14 00:09:21;;;;;;;10.07;6.50;;;5.40;99.90;;;;;;4996931;28;20465;-86
2021/01/14 00:12:01;;;;;;;7.43;6.40;;;5.50;99.90;;;;;;4997444;28;20445;-86
2021/01/14 00:14:43;;;;;;;10.10;6.30;;;5.40;99.90;;;;;;4997457;28;20450;-86
2021/01/14 00:17:16;;;;;;;9.37;5.83;;;5.20;99.90;;;;;;5014077;28;20508;-86
2021/01/14 00:23:12;;;;;;;8.20;6.50;;;5.00;99.90;;;;;;4991981;28;20431;-86
2021/01/14 00:25:57;;;;;;;11.10;6.70;;;5.10;99.90;;;;;;4996451;28;20431;-86
2021/01/14 00:28:38;;;;;;;11.03;5.97;;;5.10;99.90;;;;;;4992882;28;20463;-86
2021/01/14 00:31:15;;;;;;;16.40;7.17;;;5.10;99.90;;;;;;4995817;28;20483;-86
2021/01/14 00:33:46;;;;;;;10.80;6.80;;;5.00;99.90;;;;;;4979383;28;20438;-86
2021/01/14 00:36:30;;;;;;;8.53;6.63;;;5.00;99.90;;;;;;4980059;28;20436;-86
2021/01/14 00:39:02;;;;;;;10.87;6.70;;;5.00;99.90;;;;;;4993638;28;20559;-86
2021/01/14 00:41:40;;;;;;;10.60;7.63;;;5.10;99.90;;;;;;4994774;28;20961;-86
2021/01/14 00:44:10;;;;;;;10.17;6.90;;;4.90;99.90;;;;;;4977940;28;20485;-86
2021/01/14 00:46:52;;;;;;;9.87;6.87;;;4.80;99.90;;;;;;4995335;28;20419;-86
2021/01/14 00:49:40;;;;;;;11.07;8.10;;;4.80;99.90;;;;;;4978763;28;20442;-86
2021/01/14 00:52:13;;;;;;;10.13;7.47;;;5.00;99.90;;;;;;4993642;28;20451;-86
2021/01/14 00:54:42;;;;;;;10.90;7.77;;;5.20;99.90;;;;;;4992391;28;20451;-86
2021/01/14 00:57:13;;;;;;;10.37;7.97;;;5.20;99.90;;;;;;4992809;28;20455;-86
2021/01/14 00:59:42;;;;;;;11.43;7.60;;;5.00;99.90;;;;;;4977597;28;20486;-86
2021/01/14 01:02:10;;;;;;;18.40;9.23;;;5.00;99.90;;;;;;4997094;28;20443;-86
2021/01/14 01:04:37;;;;;;;10.50;8.40;;;5.10;99.90;;;;;;4996916;28;20451;-86
2021/01/14 01:07:08;;;;;;;15.13;8.80;;;5.20;99.90;;;;;;4995533;28;20505;-86
2021/01/14 01:09:41;;;;;;;14.23;9.37;;;5.00;99.90;;;;;;4979024;28;20439;-86
2021/01/14 01:12:11;;;;;;;13.80;8.63;;;4.80;99.90;;;;;;4995137;28;20453;-86
2021/01/14 01:14:39;;;;;;;12.53;9.10;;;4.90;99.90;;;;;;4996421;28;20471;-85
2021/01/14 01:17:11;;;;;;;17.63;8.60;;;4.80;99.90;;;;;;4995659;28;20541;-85
2021/01/14 01:19:39;;;;;;;12.70;9.10;;;4.90;99.90;;;;;;4977967;28;20499;-85
2021/01/14 01:22:06;;;;;;;13.03;9.03;;;5.00;99.90;;;;;;5012852;28;20478;-85
2021/01/14 01:24:34;;;;;;;17.13;9.73;;;5.10;99.90;;;;;;5014835;28;20486;-85
2021/01/14 01:27:02;;;;;;;12.50;9.27;;;5.30;99.90;;;;;;5015218;28;20473;-86
2021/01/14 01:29:35;;;;;;;13.63;10.50;;;5.10;99.90;;;;;;5016060;28;20450;-85
2021/01/14 01:32:03;;;;;;;16.30;10.43;;;5.00;99.90;;;;;;5015768;28;20450;-85
2021/01/14 01:34:30;;;;;;;21.98;15.15;;;4.90;99.90;;;;;;5012221;28;20484;-85
2021/01/14 01:36:58;;;;;;;20.43;12.73;;;4.70;99.90;;;;;;4997366;28;20714;-85
2021/01/14 01:39:25;;;;;;;15.90;11.53;;;4.90;99.90;;;;;;5013420;28;20460;-84
2021/01/14 01:41:57;;;;;;;17.47;12.67;;;5.00;99.90;;;;;;4995592;28;20493;-85
2021/01/14 01:44:24;;;;;;;18.13;11.60;;;5.20;99.90;;;;;;5015011;28;20461;-85
2021/01/14 01:46:56;;;;;;;17.77;12.23;;;5.00;99.90;;;;;;4996749;28;20442;-85
2021/01/14 01:49:24;;;;;;;18.27;12.50;;;4.80;99.90;;;;;;5013822;28;20446;-85
2021/01/14 01:51:55;;;;;;;17.90;12.37;;;4.60;99.90;;;;;;5013530;28;20454;-85
2021/01/14 01:54:26;;;;;;;17.10;13.30;;;4.60;99.90;;;;;;4996407;28;20545;-85
2021/01/14 01:56:55;;;;;;;16.57;12.63;;;4.80;99.90;;;;;;5013087;28;20790;-85
2021/01/14 01:59:23;;;;;;;21.07;13.80;;;4.70;99.90;;;;;;5014062;28;20446;-85
2021/01/14 02:01:52;;;;;;;20.33;13.93;;;4.60;99.90;;;;;;4996605;28;20481;-85
2021/01/14 02:04:19;;;;;;;18.90;14.40;;;4.60;99.90;;;;;;5012252;28;20500;-85
2021/01/14 02:06:55;;;;;;;20.30;15.07;;;4.60;99.90;;;;;;5012416;28;20446;-85
2021/01/14 02:09:25;;;;;;;18.30;14.77;;;4.60;99.90;;;;;;4997536;28;20446;-85
2021/01/14 02:12:07;;;;;;;17.83;13.83;;;4.50;99.90;;;;;;4996230;28;20982;-85
2021/01/14 02:14:39;;;;;;;21.40;14.63;;;4.60;99.90;;;;;;4996007;28;20923;-85
2021/01/14 02:17:10;;;;;;;24.83;15.67;;;4.80;99.90;;;;;;5012329;28;20486;-85
2021/01/14 02:19:44;;;;;;;19.80;14.33;;;4.50;99.90;;;;;;5013768;28;20441;-85
2021/01/14 02:22:18;;;;;;;19.10;13.63;;;4.50;99.90;;;;;;5015528;28;20473;-85
2021/01/14 02:24:56;;;;;;;20.13;13.07;;;4.50;99.90;;;;;;5015345;28;20462;-85
2021/01/14 02:27:26;;;;;;;23.30;14.20;;;4.40;99.90;;;;;;5013610;28;20462;-85
2021/01/14 02:29:56;;;;;;;24.93;16.30;;;4.60;99.90;;;;;;5011843;28;20823;-85
2021/01/14 02:32:23;;;;;;;21.33;16.47;;;4.80;99.90;;;;;;5012095;28;20438;-85
2021/01/14 02:34:52;;;;;;;19.27;15.70;;;5.00;99.90;;;;;;5012330;28;20450;-84
2021/01/14 02:37:22;;;;;;;26.05;20.73;;;4.90;99.90;;;;;;4996856;28;20495;-86
2021/01/14 02:39:50;;;;;;;23.37;17.67;;;5.00;99.90;;;;;;4996142;28;20208;-85
2021/01/14 02:42:27;;;;;;;21.20;17.33;;;5.00;99.90;;;;;;5012924;28;20485;-85
2021/01/14 02:45:06;;;;;;;20.63;16.50;;;5.00;99.90;;;;;;5015475;28;20256;-85
2021/01/14 02:47:40;;;;;;;22.40;16.30;;;5.00;99.90;;;;;;5016278;28;20459;-85
2021/01/14 02:50:15;;;;;;;22.70;15.50;;;5.00;99.90;;;;;;5016380;28;20193;-85
2021/01/14 02:52:50;;;;;;;21.40;16.40;;;5.10;99.90;;;;;;4998830;28;20215;-86
2021/01/14 02:55:26;;;;;;;22.30;15.77;;;5.00;99.90;;;;;;5016566;28;20442;-85
2021/01/14 02:57:57;;;;;;;22.07;16.27;;;4.90;99.90;;;;;;5011080;28;20512;-85
2021/01/14 03:00:27;;;;;;;22.40;15.23;;;5.00;99.90;;;;;;5010930;28;20474;-85
2021/01/14 03:02:56;;;;;;;20.60;15.47;;;5.10;99.90;;;;;;5010675;28;20451;-85
2021/01/14 03:05:27;;;;;;;23.20;15.30;;;5.20;99.90;;;;;;5028473;22;20236;-86
2021/01/14 03:07:57;;;;;;;22.40;16.50;;;5.20;99.90;;;;;;4990031;28;20483;-86
2021/01/14 03:10:27;;;;;;;26.30;15.57;;;5.30;99.90;;;;;;4974904;29;20531;-85
2021/01/14 03:12:58;;;;;;;24.57;16.93;;;5.20;99.90;;;;;;4975941;29;20970;-86
2021/01/14 03:15:27;;;;;;;20.20;15.60;;;5.20;99.90;;;;;;4976529;29;20443;-85
2021/01/14 03:17:56;;;;;;;20.50;15.93;;;5.20;99.90;;;;;;4975807;28;20591;-85
2021/01/14 03:20:24;;;;;;;20.03;15.57;;;5.10;99.90;;;;;;4975218;29;20494;-86
2021/01/14 03:22:53;;;;;;;24.23;15.57;;;5.30;99.90;;;;;;4974384;28;20440;-85
2021/01/14 03:25:25;;;;;;;24.23;16.33;;;5.30;99.90;;;;;;4975871;29;20444;-86
2021/01/14 03:28:00;;;;;;;21.13;15.57;;;5.30;99.90;;;;;;5004736;23;20528;-85
2021/01/14 03:30:45;;;;;;;21.70;16.00;;;5.20;99.90;;;;;;5034538;28;20445;-86
2021/01/14 03:33:18;;;;;;;22.67;15.13;;;5.20;99.90;;;;;;5036527;28;20433;-86
2021/01/14 03:36:12;;;;;;;21.33;15.20;;;5.20;99.90;;;;;;5019795;28;20468;-86
2021/01/14 03:41:41;;;;;;;28.27;22.93;;;5.10;99.90;;;;;;5016521;28;20461;-86
2021/01/14 03:44:23;;;;;;;21.13;16.47;;;5.20;99.90;;;;;;5015733;28;20256;-85
2021/01/14 03:47:02;;;;;;;22.10;16.73;;;5.40;99.90;;;;;;5015133;28;20208;-85
2021/01/14 03:49:37;;;;;;;21.20;15.67;;;5.30;99.90;;;;;;5016400;28;20477;-85
2021/01/14 03:52:07;;;;;;;23.23;16.93;;;5.20;99.90;;;;;;4998816;28;20231;-85
2021/01/14 03:54:40;;;;;;;25.20;16.90;;;5.40;99.90;;;;;;5013833;28;20438;-85
2021/01/14 03:57:11;;;;;;;26.13;16.90;;;5.50;99.90;;;;;;5014731;28;20220;-85
2021/01/14 03:59:47;;;;;;;23.13;17.73;;;5.30;99.90;;;;;;5039677;22;20220;-85
2021/01/14 04:02:19;;;;;;;22.70;16.43;;;5.30;99.90;;;;;;5016139;28;20426;-85
2021/01/14 04:05:01;;;;;;;23.40;16.43;;;5.20;99.90;;;;;;5015569;28;20445;-84
2021/01/14 04:07:42;;;;;;;25.77;17.13;;;5.20;99.90;;;;;;5015773;28;20224;-85
2021/01/14 04:10:18;;;;;;;23.93;17.03;;;5.20;99.90;;;;;;5016012;28;20181;-85
2021/01/14 04:12:53;;;;;;;21.30;17.00;;;5.20;99.90;;;;;;5015291;28;20211;-85
2021/01/14 04:15:24;;;;;;;25.30;17.27;;;5.30;99.90;;;;;;5015144;28;20212;-85
2021/01/14 04:18:08;;;;;;;23.67;16.50;;;5.30;99.90;;;;;;5014505;28;20224;-85
2021/01/14 04:23:29;;;;;;;29.67;17.30;;;5.20;99.90;;;;;;5014489;28;20184;-85
2021/01/14 04:26:06;;;;;;;22.83;16.43;;;5.10;99.90;;;;;;4998473;28;20208;-85
2021/01/14 04:28:41;;;;;;;26.17;17.33;;;5.00;99.90;;;;;;5014963;28;20469;-85
2021/01/14 04:31:28;;;;;;;23.43;17.60;;;5.10;99.90;;;;;;5015559;28;20243;-85
2021/01/14 04:34:10;;;;;;;25.43;18.17;;;5.00;99.90;;;;;;5056542;23;20271;-85
2021/01/14 04:48:44;;;;;;;25.47;18.10;;;5.00;99.90;;;;;;4995769;28;20235;-85
2021/01/14 04:51:30;;;;;;;23.10;16.93;;;5.30;99.90;;;;;;4997548;28;20197;-86
2021/01/14 05:00:15;;;;;;;27.10;18.60;;;5.00;99.90;;;;;;4997287;28;20208;-85
2021/01/14 05:14:21;;;;;;;23.63;17.10;;;5.00;99.90;;;;;;3331910;22;20605;-82
2021/01/14 05:17:02;;;;;;;30.33;24.67;;;4.80;99.90;;;;;;4982359;28;20432;-83
2021/01/14 05:37:41;;;;;;;8.43;6.33;;;5.00;99.90;;;;;;4990112;28;20236;-86
2021/01/14 05:40:15;;;;;;;8.13;5.00;;;4.70;99.90;;;;;;4992086;28;20467;-85
2021/01/14 05:42:48;;;;;;;8.03;4.43;;;4.80;99.90;;;;;;4992493;28;20433;-85
2021/01/14 05:45:24;;;;;;;5.47;3.77;;;4.60;99.90;;;;;;4974769;28;20431;-85
2021/01/14 05:47:51;;;;;;;6.10;3.93;;;4.50;99.90;;;;;;4994264;28;20470;-85
2021/01/14 05:50:31;;;;;;;8.43;4.20;;;4.30;99.90;;;;;;4995619;28;20451;-84
2021/01/14 05:53:20;;;;;;;6.73;3.80;;;4.20;99.90;;;;;;4979335;28;20440;-85
2021/01/14 05:56:10;;;;;;;5.57;4.60;;;3.90;99.90;;;;;;4994235;28;20447;-85
2021/01/14 05:58:41;;;;;;;5.93;4.60;;;3.90;99.90;;;;;;4994847;28;20458;-85
2021/01/14 06:01:13;;;;;;;5.63;3.57;;;3.80;99.90;;;;;;4995309;28;20486;-85
2021/01/14 06:03:41;;;;;;;7.07;5.23;;;3.70;99.90;;;;;;4994031;28;20451;-85
2021/01/14 06:06:17;;;;;;;5.50;4.90;;;3.60;99.90;;;;;;4994334;28;20463;-85
2021/01/14 06:08:49;;;;;;;8.33;4.77;;;3.50;99.90;;;;;;4994057;28;20478;-85
2021/01/14 06:11:24;;;;;;;4.83;4.43;;;3.40;99.90;;;;;;4976833;28;20497;-85
2021/01/14 06:13:52;;;;;;;6.97;4.87;;;3.20;99.90;;;;;;4994540;28;20470;-85
2021/01/14 06:16:19;;;;;;;5.80;4.60;;;3.20;99.90;;;;;;4994067;28;20471;-85
2021/01/14 06:19:05;;;;;;;4.33;3.93;;;3.10;99.90;;;;;;4993218;28;20475;-85
2021/01/14 06:21:46;;;;;;;7.50;2.77;;;3.00;99.90;;;;;;4993860;28;20483;-85
2021/01/14 06:24:36;;;;;;;5.57;3.40;;;3.00;99.90;;;;;;4994710;28;20512;-85
2021/01/14 07:08:53;;;;;;;6.47;4.33;;;2.50;99.90;;;;;;4999943;23;20467;-85
2021/01/14 07:55:04;;;;;;;14.20;5.37;;;2.00;99.90;;;;;;5034040;23;20481;-85
2021/01/14 07:57:43;;;;;;;7.57;4.40;;;1.90;99.90;;;;;;5069156;22;20490;-85
2021/01/14 08:12:54;;;;;;;7.90;4.43;;;2.00;99.90;;;;;;5110897;22;20490;-84
2021/01/14 08:15:59;;;;;;;7.03;4.97;;;1.90;99.90;;;;;;4998733;28;20442;-83
2021/01/14 08:24:54;;;;;;;9.13;4.80;;;2.10;99.90;;;;;;5012742;28;20469;-85
2021/01/14 08:28:04;;;;;;;11.20;5.93;;;2.20;99.90;;;;;;4997199;28;20470;-86
2021/01/14 08:31:16;;;;;;;9.73;5.83;;;2.10;99.90;;;;;;4980536;28;20520;-86
2021/01/14 08:34:35;;;;;;;16.85;9.63;;;2.10;99.90;;;;;;5005703;28;20422;-86
2021/01/14 08:40:54;;;;;;;11.10;5.87;;;2.60;99.90;;;;;;5048736;23;20476;-86
2021/01/14 09:01:43;;;;;;;10.10;5.30;;;2.20;99.90;;;;;;6015753;22;20499;31
2021/01/14 09:04:14;;;;;;;8.13;4.53;;;2.10;99.90;;;;;;5627053;23;20477;-85
2021/01/14 09:06:49;;;;;;;8.87;4.57;;;2.40;99.90;;;;;;5061578;22;20490;-84
2021/01/14 09:15:03;;;;;;;7.23;4.30;;;2.20;99.90;;;;;;5270860;23;20498;-85
2021/01/14 09:20:33;;;;;;;10.03;5.37;;;2.00;99.90;;;;;;5018017;22;20472;-85
2021/01/14 09:23:54;;;;;;;7.57;4.13;;;2.00;99.90;;;;;;5019686;28;20478;-85
2021/01/14 15:11:17;;;;;;;7.57;3.80;;;3.70;99.90;;;;;;4998902;28;20450;-86
2021/01/14 15:49:25;;;;;;;10.37;5.30;;;4.00;99.90;;;;;;5164577;22;20494;-86
2021/01/14 16:44:26;;;;;;;10.67;4.50;;;3.90;99.90;;;;;;4991980;28;20456;-85
2021/01/14 16:47:23;;;;;;;6.53;4.17;;;3.80;99.90;;;;;;4993470;28;20450;-86
2021/01/14 16:53:39;;;;;;;13.27;4.80;;;3.60;99.90;;;;;;5115530;22;20565;-86
2021/01/14 17:27:37;;;;;;;12.27;6.97;;;3.40;99.90;;;;;;5264349;22;20500;-84
2021/01/14 17:34:16;;;;;;;21.80;7.10;;;3.40;99.90;;;;;;5059867;22;20485;-87
2021/01/14 17:37:36;;;;;;;10.47;6.03;;;3.40;99.90;;;;;;5061951;23;20482;-86
2021/01/14 17:41:11;;;;;;;18.50;9.52;;;3.40;99.90;;;;;;5482728;22;20416;-86
2021/01/14 17:44:20;;;;;;;11.40;7.80;;;3.40;99.90;;;;;;5247285;22;20214;-86
2021/01/14 17:49:55;;;;;;;16.53;8.37;;;3.50;99.90;;;;;;5029399;22;20456;-86
2021/01/14 17:55:35;;;;;;;17.50;9.07;;;3.40;99.90;;;;;;5400123;23;20521;-86
2021/01/14 17:58:24;;;;;;;15.37;8.60;;;3.30;99.90;;;;;;4999825;28;20524;-87
2021/01/14 18:16:10;;;;;;;18.77;10.20;;;3.10;99.90;;;;;;5058247;28;20509;-87
2021/01/14 18:21:45;;;;;;;25.87;11.33;;;3.20;99.90;;;;;;5164554;23;20478;-86
2021/01/14 18:47:40;;;;;;;21.67;13.10;;;3.20;99.90;;;;;;4996546;28;20469;-86
2021/01/14 18:58:44;;;;;;;22.73;12.80;;;3.10;99.90;;;;;;5445851;22;20463;-85
2021/01/14 19:04:05;;;;;;;26.87;13.10;;;3.20;99.90;;;;;;5124367;23;20545;-86
2021/01/14 19:09:54;;;;;;;23.13;11.50;;;3.20;99.90;;;;;;2545823;23;20832;-84
2021/01/14 19:12:29;;;;;;;23.47;12.23;;;3.30;99.90;;;;;;4974263;29;20546;-85
2021/01/14 19:14:57;;;;;;;20.30;12.33;;;3.30;99.90;;;;;;4973477;28;20455;-85
2021/01/14 19:17:27;;;;;;;20.30;12.50;;;3.20;99.90;;;;;;4968475;28;20525;-85
2021/01/14 19:19:56;;;;;;;23.50;12.40;;;3.20;99.90;;;;;;4954173;29;20445;-85
2021/01/14 19:22:24;;;;;;;21.97;12.00;;;3.20;99.90;;;;;;4955106;29;20489;-85
2021/01/14 19:24:58;;;;;;;23.13;12.20;;;3.20;99.90;;;;;;4955008;29;20457;-85
2021/01/14 19:27:27;;;;;;;23.80;12.37;;;3.40;99.90;;;;;;4954853;29;20473;-85
2021/01/14 19:29:57;;;;;;;19.60;11.53;;;3.20;99.90;;;;;;4954719;29;20453;-85
2021/01/14 19:32:26;;;;;;;20.80;11.17;;;3.20;99.90;;;;;;4953730;29;20456;-85
2021/01/14 19:34:53;;;;;;;18.03;11.17;;;3.20;99.90;;;;;;4953932;29;20547;-85
2021/01/14 19:37:22;;;;;;;16.43;11.70;;;3.20;99.90;;;;;;4953582;29;20480;-85
2021/01/14 19:39:50;;;;;;;18.87;12.13;;;3.20;99.90;;;;;;4953564;29;20464;-85
2021/01/14 19:42:22;;;;;;;21.50;12.90;;;3.20;99.90;;;;;;4954133;29;20484;-85
2021/01/14 19:44:49;;;;;;;17.93;10.93;;;3.10;99.90;;;;;;4953111;29;20492;-85
2021/01/14 19:47:25;;;;;;;19.90;10.90;;;3.10;99.90;;;;;;4955277;29;20484;-85
2021/01/14 19:49:52;;;;;;;18.87;11.10;;;3.20;99.90;;;;;;4954339;29;20460;-85
2021/01/14 19:52:19;;;;;;;22.13;11.63;;;3.10;99.90;;;;;;4954084;29;20466;-85
2021/01/14 19:54:46;;;;;;;19.07;11.40;;;3.10;99.90;;;;;;4952010;29;20480;-85
2021/01/14 19:57:17;;;;;;;20.07;11.57;;;3.10;99.90;;;;;;4954177;29;20977;-85
2021/01/14 19:59:47;;;;;;;20.80;11.43;;;3.10;99.90;;;;;;4954794;29;20484;-85
2021/01/14 20:02:16;;;;;;;19.97;10.93;;;3.00;99.90;;;;;;4952616;29;20485;-85
2021/01/14 20:04:46;;;;;;;14.03;9.77;;;3.00;99.90;;;;;;4955192;29;20473;-85
2021/01/14 20:07:14;;;;;;;25.60;10.90;;;3.30;99.90;;;;;;4954054;29;21031;-85
2021/01/14 20:09:47;;;;;;;18.93;10.40;;;3.30;99.90;;;;;;4952671;29;20480;-85
2021/01/14 20:12:15;;;;;;;22.93;11.83;;;3.40;99.90;;;;;;4955474;29;20986;-85
2021/01/14 20:14:43;;;;;;;23.27;11.30;;;3.40;99.90;;;;;;4972686;29;20494;-85
2021/01/14 20:17:12;;;;;;;22.93;12.37;;;3.40;99.90;;;;;;4972002;28;20476;-85
2021/01/14 20:19:39;;;;;;;26.40;10.93;;;3.30;99.90;;;;;;4971692;29;20448;-85
2021/01/14 20:22:08;;;;;;;27.50;11.73;;;3.30;99.90;;;;;;4972070;29;20495;-85
2021/01/14 20:24:35;;;;;;;28.87;12.20;;;3.30;99.90;;;;;;4973582;29;20456;-84
2021/01/14 20:27:04;;;;;;;19.80;12.00;;;3.20;99.90;;;;;;4972444;28;20467;-85
2021/01/14 20:29:32;;;;;;;21.57;11.13;;;3.20;99.90;;;;;;4974766;29;20480;-86
2021/01/14 20:35:57;;;;;;;17.73;10.27;;;3.30;99.90;;;;;;4996963;28;20435;-86
2021/01/14 20:38:25;;;;;;;17.70;9.20;;;3.30;99.90;;;;;;4993505;28;20467;-86
2021/01/14 20:41:04;;;;;;;17.57;10.20;;;3.30;99.90;;;;;;4994602;28;21002;-86
2021/01/14 20:43:36;;;;;;;14.07;9.23;;;3.20;99.90;;;;;;4991323;28;20950;-85
2021/01/14 20:46:05;;;;;;;13.87;10.07;;;3.30;99.90;;;;;;4973451;29;20483;-86
2021/01/14 20:48:46;;;;;;;19.87;11.17;;;3.50;99.90;;;;;;4973449;28;20476;-86
2021/01/14 21:00:03;;;;;;;16.97;10.33;;;3.30;99.90;;;;;;5030872;28;20504;-85
2021/01/14 21:02:41;;;;;;;13.60;10.77;;;3.20;99.90;;;;;;5033520;28;20487;-86
2021/01/14 21:10:48;;;;;;;16.60;10.60;;;3.20;99.90;;;;;;5015991;28;20489;-86
2021/01/14 21:13:38;;;;;;;14.83;10.63;;;3.00;99.90;;;;;;5042709;22;20482;-86
2021/01/14 21:16:14;;;;;;;19.30;10.87;;;3.00;99.90;;;;;;5013650;28;20453;-86
2021/01/14 21:18:47;;;;;;;16.90;10.13;;;2.90;99.90;;;;;;5020260;28;20468;-86
2021/01/14 21:23:59;;;;;;;17.20;12.68;;;2.90;99.90;;;;;;4997488;28;20450;-86
2021/01/14 21:26:51;;;;;;;15.30;10.37;;;2.80;99.90;;;;;;4983530;28;20208;-86
2021/01/14 21:29:17;;;;;;;17.40;9.67;;;2.80;99.90;;;;;;4980278;29;20467;-86
2021/01/14 21:31:59;;;;;;;12.50;9.93;;;2.90;99.90;;;;;;5015828;23;20477;-86
2021/01/14 21:34:39;;;;;;;11.97;9.00;;;2.90;99.90;;;;;;5038765;28;20421;-86
2021/01/14 21:39:53;;;;;;;14.60;9.47;;;2.80;99.90;;;;;;5017994;28;20425;-86
2021/01/14 21:42:45;;;;;;;12.27;9.10;;;2.80;99.90;;;;;;5019558;28;20499;-86
2021/01/14 21:45:14;;;;;;;13.87;9.40;;;2.80;99.90;;;;;;5020422;28;20445;-86
2021/01/14 21:48:03;;;;;;;12.20;8.87;;;2.80;99.90;;;;;;5019233;28;20490;-86
2021/01/14 21:50:37;;;;;;;13.73;8.77;;;2.70;99.90;;;;;;5017858;28;20498;-86
2021/01/14 21:53:20;;;;;;;15.70;9.03;;;2.60;99.90;;;;;;5024307;22;20524;-85
2021/01/14 21:55:50;;;;;;;20.07;9.03;;;2.70;99.90;;;;;;5003611;28;20418;-86
2021/01/14 21:58:34;;;;;;;14.77;8.90;;;2.60;99.90;;;;;;5033574;22;20517;-85
2021/01/14 22:01:23;;;;;;;12.50;9.40;;;2.60;99.90;;;;;;5018981;28;20437;-86
2021/01/14 22:04:08;;;;;;;17.43;9.77;;;2.60;99.90;;;;;;5032907;23;20494;-85
2021/01/14 22:06:46;;;;;;;16.43;9.87;;;2.60;99.90;;;;;;5019553;28;20430;-86
2021/01/14 22:09:48;;;;;;;16.33;9.60;;;2.40;99.90;;;;;;5000262;28;20462;-86
2021/01/14 22:12:29;;;;;;;11.33;8.87;;;2.50;99.90;;;;;;4984974;28;20455;-86
2021/01/14 22:15:22;;;;;;;12.90;9.57;;;2.50;99.90;;;;;;4999533;28;20435;-86
2021/01/14 22:17:49;;;;;;;15.97;9.73;;;2.40;99.90;;;;;;4983480;28;20474;-86
2021/01/14 22:20:21;;;;;;;13.13;8.83;;;2.40;99.90;;;;;;4983726;28;20458;-86
2021/01/14 22:22:52;;;;;;;16.63;9.70;;;2.30;99.90;;;;;;5000151;28;20491;-86
2021/01/14 22:25:28;;;;;;;19.60;10.13;;;2.30;99.90;;;;;;5000714;28;20443;-86
2021/01/14 22:34:14;;;;;;;14.57;9.03;;;2.20;99.90;;;;;;5015763;28;20485;-86
2021/01/14 22:36:51;;;;;;;15.00;9.83;;;2.10;99.90;;;;;;5016087;28;20458;-86
2021/01/14 22:39:44;;;;;;;15.97;10.30;;;2.20;99.90;;;;;;5043646;22;20443;-86
2021/01/14 22:45:01;;;;;;;18.40;9.40;;;2.20;99.90;;;;;;5018097;28;20445;-86
2021/01/14 22:47:29;;;;;;;12.47;9.33;;;2.10;99.90;;;;;;5050603;23;20490;-86
2021/01/14 22:49:59;;;;;;;14.67;9.57;;;2.10;99.90;;;;;;5018655;28;20434;-86
2021/01/14 22:52:49;;;;;;;13.30;9.10;;;2.10;99.90;;;;;;5018413;28;20431;-87
2021/01/14 22:55:33;;;;;;;10.33;9.00;;;2.10;99.90;;;;;;5017251;28;20481;-85
2021/01/14 22:58:00;;;;;;;14.73;9.93;;;2.20;99.90;;;;;;5016569;28;20466;-85
2021/01/14 23:00:32;;;;;;;18.27;10.53;;;2.10;99.90;;;;;;5017818;28;20503;-85
2021/01/14 23:03:06;;;;;;;17.10;10.53;;;2.10;99.90;;;;;;5018683;28;20485;-85
2021/01/14 23:05:34;;;;;;;18.43;10.47;;;2.20;99.90;;;;;;5019084;28;20443;-86
2021/01/14 23:08:20;;;;;;;18.47;11.00;;;2.10;99.90;;;;;;5018052;28;20450;-85
2021/01/14 23:10:53;;;;;;;16.17;10.60;;;2.10;99.90;;;;;;5001335;28;20418;-86
2021/01/14 23:13:23;;;;;;;19.57;10.90;;;2.10;99.90;;;;;;5017000;28;20457;-86
2021/01/14 23:15:50;;;;;;;13.50;9.70;;;2.00;99.90;;;;;;5017021;28;20530;-86
2021/01/14 23:18:25;;;;;;;22.23;11.37;;;1.90;99.90;;;;;;5017132;28;20465;-86
2021/01/14 23:21:04;;;;;;;20.97;10.63;;;1.90;99.90;;;;;;5041390;22;20497;-86
2021/01/14 23:29:26;;;;;;;16.27;10.63;;;2.00;99.90;;;;;;5103697;22;20530;-86
2021/01/14 23:32:05;;;;;;;15.40;10.20;;;2.00;99.90;;;;;;5017300;28;20461;-86
2021/01/14 23:34:34;;;;;;;14.83;9.97;;;2.00;99.90;;;;;;5017182;28;20465;-86
2021/01/14 23:37:03;;;;;;;19.30;10.67;;;2.10;99.90;;;;;;5015949;28;20466;-86
2021/01/14 23:39:35;;;;;;;14.93;9.37;;;1.90;99.90;;;;;;5000326;28;20430;-86
2021/01/14 23:42:08;;;;;;;21.23;11.63;;;1.90;99.90;;;;;;5016823;28;20465;-86
2021/01/14 23:44:52;;;;;;;18.53;10.33;;;1.90;99.90;;;;;;5016705;28;20450;-86
2021/01/14 23:47:19;;;;;;;17.43;11.17;;;1.90;99.90;;;;;;5016399;28;20480;-86
2021/01/14 23:50:01;;;;;;;20.33;10.33;;;1.90;99.90;;;;;;5015601;28;20454;-86
2021/01/14 23:52:34;;;;;;;20.27;11.83;;;1.80;99.90;;;;;;5000836;28;20502;-86
2021/01/14 23:55:01;;;;;;;18.07;10.27;;;1.80;99.90;;;;;;5015811;28;20429;-87
2021/01/14 23:57:33;;;;;;;17.57;10.13;;;1.80;99.90;;;;;;5016351;28;20496;-86
